Time;durP1;ratioP1;P1;durP2;ratioP2;P2;SDS_P1;SDS_P2;PMS_P1;PMS_P2;Temp;Humidity;BMP_temperature;BMP_pressure;BME280_temperature;BME280_humidity;BME280_pressure;Samples;Min_cycle;Max_cycle;Signal;HPM_P1;HPM_P2
2022/12/14 00:01:39;;;;;;;;;;;;;;;;;;5038252;28;19948;-80
2022/12/14 00:04:05;;;;;;;;;;;;;;;;;;5038926;28;19932;-81
2022/12/14 00:06:31;;;;;;;;;;;;;;;;;;5038856;28;19929;-80
2022/12/14 00:08:57;;;;;;;;;;;;;;;;;;5039224;28;19925;-80
2022/12/14 00:11:23;;;;;;;;;;;;;;;;;;5041349;28;19925;-79
2022/12/14 00:13:49;;;;;;;;;;;;;;;;;;5040736;28;19925;-81
2022/12/14 00:16:15;;;;;;;;;;;;;;;;;;5036841;28;19948;-81
2022/12/14 00:18:40;;;;;;;;;;;;;;;;;;5041002;28;19960;-80
2022/12/14 00:21:06;;;;;;;;;;;;;;;;;;5042468;28;19929;-81
2022/12/14 00:23:32;;;;;;;;;;;;;;;;;;5041177;28;19925;-80
2022/12/14 00:25:58;;;;;;;;;;;;;;;;;;5041492;28;20355;-81
2022/12/14 00:28:24;;;;;;;;;;;;;;;;;;5045654;28;19925;-80
2022/12/14 00:30:50;;;;;;;;;;;;;;;;;;5044994;28;20325;-80
2022/12/14 00:33:16;;;;;;;;;;;;;;;;;;5036607;28;20299;-80
2022/12/14 00:35:42;;;;;;;;;;;;;;;;;;5025471;28;19930;-81
2022/12/14 00:38:08;;;;;;;;;;;;;;;;;;5037058;28;19970;-80
2022/12/14 00:40:34;;;;;;;;;;;;;;;;;;5033576;28;20389;-79
2022/12/14 00:43:00;;;;;;;;;;;;;;;;;;5040927;28;20082;-81
2022/12/14 00:45:26;;;;;;;;;;;;;;;;;;5038579;28;19992;-80
2022/12/14 00:47:51;;;;;;;;;;;;;;;;;;5040567;28;19929;-80
2022/12/14 00:50:17;;;;;;;;;;;;;;;;;;5044259;28;19925;-80
2022/12/14 00:52:43;;;;;;;;;;;;;;;;;;5042723;28;20318;-81
2022/12/14 00:55:09;;;;;;;;;;;;;;;;;;5042131;28;19932;-81
2022/12/14 00:57:35;;;;;;;;;;;;;;;;;;5043431;28;19926;-80
2022/12/14 01:00:01;;;;;;;;;;;;;;;;;;5042136;28;19932;-79
2022/12/14 01:02:27;;;;;;;;;;;;;;;;;;5041925;28;19933;-80
2022/12/14 01:04:53;;;;;;;;;;;;;;;;;;5043036;28;19925;-81
2022/12/14 01:07:19;;;;;;;;;;;;;;;;;;5045177;28;20278;-81
2022/12/14 01:09:45;;;;;;;;;;;;;;;;;;5043945;28;19976;-81
2022/12/14 01:12:11;;;;;;;;;;;;;;;;;;5043651;28;19976;-81
2022/12/14 01:14:36;;;;;;;;;;;;;;;;;;5044522;28;19925;-80
2022/12/14 01:17:02;;;;;;;;;;;;;;;;;;5041895;28;19979;-81
2022/12/14 01:19:28;;;;;;;;;;;;;;;;;;5045190;28;19925;-81
2022/12/14 01:21:54;;;;;;;;;;;;;;;;;;5045339;28;19925;-82
2022/12/14 01:24:20;;;;;;;;;;;;;;;;;;5039506;28;19925;-81
2022/12/14 01:26:46;;;;;;;;;;;;;;;;;;5052757;28;19932;-80
2022/12/14 01:29:12;;;;;;;;;;;;;;;;;;5054527;28;19988;-81
2022/12/14 01:31:38;;;;;;;;;;;;;;;;;;5049414;28;19925;-81
2022/12/14 01:34:05;;;;;;;;;;;;;;;;;;5054200;28;19936;-81
2022/12/14 01:36:31;;;;;;;;;;;;;;;;;;5040832;28;19925;-81
2022/12/14 01:38:56;;;;;;;;;;;;;;;;;;5044226;28;20072;-81
2022/12/14 01:41:22;;;;;;;;;;;;;;;;;;5045596;28;19925;-81
2022/12/14 01:43:48;;;;;;;;;;;;;;;;;;5047315;28;19925;-81
2022/12/14 01:46:14;;;;;;;;;;;;;;;;;;5038713;28;19969;-81
2022/12/14 01:48:40;;;;;;;;;;;;;;;;;;5047088;28;19929;-81
2022/12/14 01:51:06;;;;;;;;;;;;;;;;;;5051300;28;19925;-81
2022/12/14 01:53:32;;;;;;;;;;;;;;;;;;5051799;28;19948;-81
2022/12/14 01:55:58;;;;;;;;;;;;;;;;;;5039766;28;19925;-81
2022/12/14 01:58:24;;;;;;;;;;;;;;;;;;5040518;28;19925;-82
2022/12/14 02:00:50;;;;;;;;;;;;;;;;;;5043615;28;19932;-82
2022/12/14 02:03:15;;;;;;;;;;;;;;;;;;5026065;28;19948;-81
2022/12/14 02:05:41;;;;;;;;;;;;;;;;;;5042084;28;19983;-81
2022/12/14 02:08:07;;;;;;;;;;;;;;;;;;5046846;28;19972;-82
2022/12/14 02:10:33;;;;;;;;;;;;;;;;;;5045552;28;19925;-82
2022/12/14 02:12:59;;;;;;;;;;;;;;;;;;5029491;28;20318;-81
2022/12/14 02:15:25;;;;;;;;;;;;;;;;;;5039603;28;20375;-81
2022/12/14 02:17:51;;;;;;;;;;;;;;;;;;5042982;28;19926;-81
2022/12/14 02:20:17;;;;;;;;;;;;;;;;;;5037793;28;19925;-81
2022/12/14 02:22:43;;;;;;;;;;;;;;;;;;5037586;28;20046;-81
2022/12/14 02:25:09;;;;;;;;;;;;;;;;;;5040124;28;19979;-81
2022/12/14 02:27:35;;;;;;;;;;;;;;;;;;5044168;28;19989;-80
2022/12/14 02:30:01;;;;;;;;;;;;;;;;;;5044972;28;20407;-80
2022/12/14 02:32:26;;;;;;;;;;;;;;;;;;5044638;28;19972;-81
2022/12/14 02:34:52;;;;;;;;;;;;;;;;;;5048899;28;19936;-81
2022/12/14 02:37:18;;;;;;;;;;;;;;;;;;5050092;28;19929;-80
2022/12/14 02:39:44;;;;;;;;;;;;;;;;;;5065340;28;19956;-81
2022/12/14 02:42:10;;;;;;;;;;;;;;;;;;5044317;28;19925;-81
2022/12/14 02:44:36;;;;;;;;;;;;;;;;;;5042264;28;19987;-81
2022/12/14 02:47:02;;;;;;;;;;;;;;;;;;5040557;28;20280;-80
2022/12/14 02:49:28;;;;;;;;;;;;;;;;;;5041741;28;19951;-81
2022/12/14 02:51:54;;;;;;;;;;;;;;;;;;5042206;28;19981;-82
2022/12/14 02:54:20;;;;;;;;;;;;;;;;;;5042578;28;20004;-81
2022/12/14 02:56:46;;;;;;;;;;;;;;;;;;5042863;28;19982;-81
2022/12/14 02:59:12;;;;;;;;;;;;;;;;;;5042888;28;20020;-82
2022/12/14 03:01:37;;;;;;;;;;;;;;;;;;5028581;28;20319;-81
2022/12/14 03:04:03;;;;;;;;;;;;;;;;;;5047705;28;19925;-81
2022/12/14 03:06:29;;;;;;;;;;;;;;;;;;5041519;28;19999;-81
2022/12/14 03:08:55;;;;;;;;;;;;;;;;;;5049073;28;19930;-81
2022/12/14 03:11:21;;;;;;;;;;;;;;;;;;5045057;28;19936;-81
2022/12/14 03:13:47;;;;;;;;;;;;;;;;;;5047089;28;19935;-81
2022/12/14 03:16:13;;;;;;;;;;;;;;;;;;5040097;28;19930;-81
2022/12/14 03:18:39;;;;;;;;;;;;;;;;;;5049419;28;19953;-81
2022/12/14 03:21:05;;;;;;;;;;;;;;;;;;5052138;28;19971;-81
2022/12/14 03:23:31;;;;;;;;;;;;;;;;;;5051414;28;19925;-82
2022/12/14 03:25:57;;;;;;;;;;;;;;;;;;5047553;28;20314;-82
2022/12/14 03:28:23;;;;;;;;;;;;;;;;;;5051989;28;19925;-81
2022/12/14 03:30:49;;;;;;;;;;;;;;;;;;5047196;28;19926;-81
2022/12/14 03:33:15;;;;;;;;;;;;;;;;;;5051165;28;19976;-81
2022/12/14 03:35:41;;;;;;;;;;;;;;;;;;5027910;28;19925;-82
2022/12/14 03:38:07;;;;;;;;;;;;;;;;;;5037080;28;19937;-81
2022/12/14 03:40:33;;;;;;;;;;;;;;;;;;5034153;28;19925;-82
2022/12/14 03:42:59;;;;;;;;;;;;;;;;;;5050645;28;19924;-81
2022/12/14 03:45:25;;;;;;;;;;;;;;;;;;5053737;28;19933;-82
2022/12/14 03:47:50;;;;;;;;;;;;;;;;;;5055882;28;19985;-82
2022/12/14 03:50:19;;;;;;;;;;;;;;;;;;5054285;28;19925;-81
2022/12/14 03:52:45;;;;;;;;;;;;;;;;;;5046890;28;19925;-81
2022/12/14 03:55:11;;;;;;;;;;;;;;;;;;5056264;28;19984;-81
2022/12/14 03:57:37;;;;;;;;;;;;;;;;;;5057466;28;19952;-81
2022/12/14 04:00:03;;;;;;;;;;;;;;;;;;5055900;28;19929;-82
2022/12/14 04:02:29;;;;;;;;;;;;;;;;;;5037406;28;19932;-81
2022/12/14 04:04:55;;;;;;;;;;;;;;;;;;5052175;28;19960;-82
2022/12/14 04:07:21;;;;;;;;;;;;;;;;;;5052613;28;20307;-81
2022/12/14 04:09:46;;;;;;;;;;;;;;;;;;5051701;28;19925;-82
2022/12/14 04:20:29;;;;;;;;;;;;;;;;;;5049481;28;19929;-81
2022/12/14 04:22:55;;;;;;;;;;;;;;;;;;5052978;28;20007;-81
2022/12/14 04:28:06;;;;;;;;;;;;;;;;;;5055129;28;19956;-81
2022/12/14 04:30:32;;;;;;;;;;;;;;;;;;5053225;28;19936;-82
2022/12/14 04:32:58;;;;;;;;;;;;;;;;;;5035663;28;19924;-81
2022/12/14 04:35:24;;;;;;;;;;;;;;;;;;5053368;28;19992;-81
2022/12/14 04:37:49;;;;;;;;;;;;;;;;;;5054233;28;20011;-80
2022/12/14 04:40:15;;;;;;;;;;;;;;;;;;5056552;28;19932;-81
2022/12/14 04:42:41;;;;;;;;;;;;;;;;;;5051553;28;19929;-81
2022/12/14 04:45:07;;;;;;;;;;;;;;;;;;5053662;28;19929;-81
2022/12/14 04:47:33;;;;;;;;;;;;;;;;;;5053868;28;19936;-82
2022/12/14 04:49:59;;;;;;;;;;;;;;;;;;5052745;28;19969;-81
2022/12/14 04:52:25;;;;;;;;;;;;;;;;;;5052508;28;19925;-82
2022/12/14 04:54:51;;;;;;;;;;;;;;;;;;5052608;28;20020;-81
2022/12/14 04:57:17;;;;;;;;;;;;;;;;;;5051146;28;19932;-81
2022/12/14 04:59:43;;;;;;;;;;;;;;;;;;5049777;28;19932;-82
2022/12/14 05:02:09;;;;;;;;;;;;;;;;;;5052061;28;19936;-81
2022/12/14 05:04:35;;;;;;;;;;;;;;;;;;5050237;28;19925;-82
2022/12/14 05:07:01;;;;;;;;;;;;;;;;;;5044463;28;19958;-82
2022/12/14 05:09:27;;;;;;;;;;;;;;;;;;5041375;28;19921;-82
2022/12/14 05:11:53;;;;;;;;;;;;;;;;;;5037608;28;19925;-82
2022/12/14 05:14:19;;;;;;;;;;;;;;;;;;5052338;28;19949;-82
2022/12/14 05:16:45;;;;;;;;;;;;;;;;;;5044367;28;20371;-82
2022/12/14 05:19:11;;;;;;;;;;;;;;;;;;5054049;28;19952;-81
2022/12/14 05:21:46;;;;;;;;;;;;;;;;;;5056582;28;19931;-81
2022/12/14 05:24:12;;;;;;;;;;;;;;;;;;5058359;28;19905;-80
2022/12/14 05:26:38;;;;;;;;;;;;;;;;;;5052707;28;19909;-81
2022/12/14 05:29:04;;;;;;;;;;;;;;;;;;5049618;28;19969;-80
2022/12/14 05:31:30;;;;;;;;;;;;;;;;;;5041678;28;19925;-81
2022/12/14 05:33:56;;;;;;;;;;;;;;;;;;5054794;28;19978;-80
2022/12/14 05:36:22;;;;;;;;;;;;;;;;;;5051621;28;19948;-80
2022/12/14 05:38:48;;;;;;;;;;;;;;;;;;5042535;28;19988;-80
2022/12/14 05:41:14;;;;;;;;;;;;;;;;;;5057886;28;19932;-81
2022/12/14 05:43:40;;;;;;;;;;;;;;;;;;5040154;28;19931;-81
2022/12/14 05:46:06;;;;;;;;;;;;;;;;;;5055386;28;19971;-81
2022/12/14 05:48:32;;;;;;;;;;;;;;;;;;5055143;28;19929;-81
2022/12/14 05:50:58;;;;;;;;;;;;;;;;;;5056121;28;19939;-81
2022/12/14 05:53:23;;;;;;;;;;;;;;;;;;5054218;28;19925;-81
2022/12/14 05:55:49;;;;;;;;;;;;;;;;;;5048585;28;19926;-81
2022/12/14 05:58:15;;;;;;;;;;;;;;;;;;5053229;28;20076;-81
2022/12/14 06:00:41;;;;;;;;;;;;;;;;;;5050733;28;19929;-80
2022/12/14 06:03:08;;;;;;;;;;;;;;;;;;5053016;28;19936;-80
2022/12/14 06:05:33;;;;;;;;;;;;;;;;;;5051123;28;19926;-80
2022/12/14 06:07:59;;;;;;;;;;;;;;;;;;5052237;28;19925;-80
2022/12/14 06:10:25;;;;;;;;;;;;;;;;;;5053706;28;19996;-81
2022/12/14 06:12:51;;;;;;;;;;;;;;;;;;5050309;28;19933;-80
2022/12/14 06:15:17;;;;;;;;;;;;;;;;;;5050504;28;19929;-80
2022/12/14 06:17:43;;;;;;;;;;;;;;;;;;5043906;28;19957;-80
2022/12/14 06:20:09;;;;;;;;;;;;;;;;;;5053369;28;19931;-80
2022/12/14 06:22:35;;;;;;;;;;;;;;;;;;5042155;28;19926;-81
2022/12/14 06:25:01;;;;;;;;;;;;;;;;;;5040926;28;19929;-79
2022/12/14 06:27:27;;;;;;;;;;;;;;;;;;5049658;28;19932;-80
2022/12/14 06:29:53;;;;;;;;;;;;;;;;;;5050189;28;19925;-80
2022/12/14 06:32:35;;;;;;;;;;;;;;;;;;;;;
2022/12/14 06:35:07;;;;;;;;;;;;;;;;;;5046960;28;19935;-79
2022/12/14 06:37:33;;;;;;;;;;;;;;;;;;5045238;28;19976;-79
2022/12/14 06:39:59;;;;;;;;;;;;;;;;;;5040842;28;19932;-79
2022/12/14 06:42:25;;;;;;;;;;;;;;;;;;5038383;28;20004;-78
2022/12/14 06:44:51;;;;;;;;;;;;;;;;;;5016111;28;19940;-78
2022/12/14 06:47:17;;;;;;;;;;;;;;;;;;5033211;28;19925;-78
2022/12/14 06:49:43;;;;;;;;;;;;;;;;;;5036315;28;19925;-77
2022/12/14 06:52:09;;;;;;;;;;;;;;;;;;5033555;28;19932;-78
2022/12/14 06:54:35;;;;;;;;;;;;;;;;;;5032084;28;19926;-78
2022/12/14 06:57:01;;;;;;;;;;;;;;;;;;5028448;28;19936;-78
2022/12/14 06:59:27;;;;;;;;;;;;;;;;;;5023655;28;19929;-78
2022/12/14 07:01:53;;;;;;;;;;;;;;;;;;5033159;28;19925;-78
2022/12/14 07:04:20;;;;;;;;;;;;;;;;;;5040998;28;19925;-79
2022/12/14 07:06:46;;;;;;;;;;;;;;;;;;5043659;28;19979;-78
2022/12/14 07:09:12;;;;;;;;;;;;;;;;;;5050504;28;20337;-78
2022/12/14 07:11:37;;;;;;;;;;;;;;;;;;5052207;28;20325;-79
2022/12/14 07:14:05;;;;;;;;;;;;;;;;;;5039916;28;19977;-79
2022/12/14 07:16:31;;;;;;;;;;;;;;;;;;5044621;28;19925;-79
2022/12/14 07:18:56;;;;;;;;;;;;;;;;;;5038140;28;20287;-79
2022/12/14 07:21:22;;;;;;;;;;;;;;;;;;5038808;28;20397;-77
2022/12/14 07:23:48;;;;;;;;;;;;;;;;;;5044519;28;19925;-78
2022/12/14 07:26:14;;;;;;;;;;;;;;;;;;5035428;28;19931;-79
2022/12/14 07:28:40;;;;;;;;;;;;;;;;;;5047908;28;19925;-79
2022/12/14 07:31:06;;;;;;;;;;;;;;;;;;5035965;28;19925;-79
2022/12/14 07:33:32;;;;;;;;;;;;;;;;;;5037978;28;19929;-79
2022/12/14 07:35:58;;;;;;;;;;;;;;;;;;5048767;28;20086;-79
2022/12/14 07:38:24;;;;;;;;;;;;;;;;;;5037188;28;20012;-80
2022/12/14 07:40:50;;;;;;;;;;;;;;;;;;5031555;28;19957;-79
2022/12/14 07:43:17;;;;;;;;;;;;;;;;;;5035085;28;19979;-79
2022/12/14 07:45:43;;;;;;;;;;;;;;;;;;5030729;28;19921;-78
2022/12/14 07:48:10;;;;;;;;;;;;;;;;;;5027823;28;19925;-79
2022/12/14 07:50:36;;;;;;;;;;;;;;;;;;5030797;28;19928;-79
2022/12/14 07:53:02;;;;;;;;;;;;;;;;;;5034352;28;19929;-79
2022/12/14 07:55:28;;;;;;;;;;;;;;;;;;5034529;28;20078;-78
2022/12/14 07:57:54;;;;;;;;;;;;;;;;;;5031722;28;20025;-79
2022/12/14 08:00:20;;;;;;;;;;;;;;;;;;5027345;28;19925;-79
2022/12/14 08:02:46;;;;;;;;;;;;;;;;;;5035550;28;20012;-79
2022/12/14 08:05:12;;;;;;;;;;;;;;;;;;5037224;28;20330;-78
2022/12/14 08:07:38;;;;;;;;;;;;;;;;;;5039179;28;19925;-79
2022/12/14 08:10:04;;;;;;;;;;;;;;;;;;5035885;28;20291;-78
2022/12/14 08:12:30;;;;;;;;;;;;;;;;;;5038436;28;19932;-78
2022/12/14 08:14:56;;;;;;;;;;;;;;;;;;5038993;28;19925;-78
2022/12/14 08:17:22;;;;;;;;;;;;;;;;;;5038693;28;19928;-78
2022/12/14 08:19:50;;;;;;;;;;;;;;;;;;5040607;28;19925;-78
2022/12/14 08:22:16;;;;;;;;;;;;;;;;;;5040707;28;19925;-79
2022/12/14 08:24:42;;;;;;;;;;;;;;;;;;5040158;28;19932;-78
2022/12/14 08:27:08;;;;;;;;;;;;;;;;;;5038399;28;20016;-78
2022/12/14 08:29:34;;;;;;;;;;;;;;;;;;5036208;28;19992;-79
2022/12/14 08:32:00;;;;;;;;;;;;;;;;;;5038489;28;19925;-79
2022/12/14 08:34:26;;;;;;;;;;;;;;;;;;5037298;28;20295;-78
2022/12/14 08:36:52;;;;;;;;;;;;;;;;;;5037187;28;20417;-79
2022/12/14 08:39:18;;;;;;;;;;;;;;;;;;5036610;28;19936;-78
2022/12/14 08:41:44;;;;;;;;;;;;;;;;;;5037065;28;19925;-78
2022/12/14 08:44:10;;;;;;;;;;;;;;;;;;5042351;28;20020;-79
2022/12/14 08:46:37;;;;;;;;;;;;;;;;;;5034567;28;19925;-79
2022/12/14 08:49:03;;;;;;;;;;;;;;;;;;5025977;28;19932;-78
2022/12/14 08:51:30;;;;;;;;;;;;;;;;;;5027956;28;19925;-79
2022/12/14 08:53:56;;;;;;;;;;;;;;;;;;5036915;28;20605;-79
2022/12/14 08:56:21;;;;;;;;;;;;;;;;;;5037312;28;19983;-77
2022/12/14 08:58:47;;;;;;;;;;;;;;;;;;5036411;28;19925;-79
2022/12/14 09:01:14;;;;;;;;;;;;;;;;;;5036349;28;20446;-79
2022/12/14 09:03:40;;;;;;;;;;;;;;;;;;5032348;28;19926;-79
2022/12/14 09:06:06;;;;;;;;;;;;;;;;;;5033398;28;19933;-78
2022/12/14 09:08:32;;;;;;;;;;;;;;;;;;5023340;28;19936;-78
2022/12/14 09:10:58;;;;;;;;;;;;;;;;;;5037282;28;19948;-78
2022/12/14 09:13:24;;;;;;;;;;;;;;;;;;5036395;28;20370;-78
2022/12/14 09:15:51;;;;;;;;;;;;;;;;;;5031497;28;19940;-79
2022/12/14 09:18:17;;;;;;;;;;;;;;;;;;5016353;28;19976;-78
2022/12/14 09:20:43;;;;;;;;;;;;;;;;;;5023360;28;19925;-78
2022/12/14 09:23:09;;;;;;;;;;;;;;;;;;5034966;28;20032;-78
2022/12/14 09:25:35;;;;;;;;;;;;;;;;;;5021280;28;19929;-78
2022/12/14 09:28:01;;;;;;;;;;;;;;;;;;5035270;28;19947;-77
2022/12/14 09:30:27;;;;;;;;;;;;;;;;;;5034371;28;20402;-78
2022/12/14 09:32:53;;;;;;;;;;;;;;;;;;5034278;28;20397;-78
2022/12/14 09:35:19;;;;;;;;;;;;;;;;;;5035020;28;19925;-78
2022/12/14 09:37:45;;;;;;;;;;;;;;;;;;5035107;28;19925;-78
2022/12/14 09:40:11;;;;;;;;;;;;;;;;;;5022027;28;19937;-77
2022/12/14 09:42:37;;;;;;;;;;;;;;;;;;5034818;28;19956;-78
2022/12/14 09:45:03;;;;;;;;;;;;;;;;;;5034544;28;19972;-78
2022/12/14 09:47:29;;;;;;;;;;;;;;;;;;5034985;28;19925;-78
2022/12/14 09:49:55;;;;;;;;;;;;;;;;;;5035339;28;19931;-78
2022/12/14 09:52:21;;;;;;;;;;;;;;;;;;5036114;28;19925;-79
2022/12/14 09:54:47;;;;;;;;;;;;;;;;;;5034730;28;19963;-79
2022/12/14 09:57:13;;;;;;;;;;;;;;;;;;5034968;28;19925;-80
2022/12/14 09:59:39;;;;;;;;;;;;;;;;;;5033773;28;19947;-79
2022/12/14 10:02:05;;;;;;;;;;;;;;;;;;5031916;28;20371;-78
2022/12/14 10:04:31;;;;;;;;;;;;;;;;;;5037631;28;19978;-79
2022/12/14 10:06:57;;;;;;;;;;;;;;;;;;5038120;28;19940;-78
2022/12/14 10:09:22;;;;;;;;;;;;;;;;;;5040494;28;19931;-78
2022/12/14 10:11:48;;;;;;;;;;;;;;;;;;5044230;28;19936;-78
2022/12/14 10:14:14;;;;;;;;;;;;;;;;;;5069777;28;19931;-78
2022/12/14 10:16:40;;;;;;;;;;;;;;;;;;5050993;28;19932;-78
2022/12/14 10:19:06;;;;;;;;;;;;;;;;;;5044765;28;19925;-78
2022/12/14 10:21:32;;;;;;;;;;;;;;;;;;5046797;28;19929;-78
2022/12/14 10:23:58;;;;;;;;;;;;;;;;;;5031155;28;19925;-78
2022/12/14 10:26:24;;;;;;;;;;;;;;;;;;5044673;28;19961;-78
2022/12/14 10:28:51;;;;;;;;;;;;;;;;;;5053456;28;19925;-77
2022/12/14 10:31:17;;;;;;;;;;;;;;;;;;5048465;28;19920;-77
2022/12/14 10:33:43;;;;;;;;;;;;;;;;;;5032105;28;19928;-78
2022/12/14 10:36:09;;;;;;;;;;;;;;;;;;5041333;28;19925;-77
2022/12/14 10:38:34;;;;;;;;;;;;;;;;;;5036008;28;19928;-78
2022/12/14 10:41:00;;;;;;;;;;;;;;;;;;5043608;28;19925;-78
2022/12/14 10:43:26;;;;;;;;;;;;;;;;;;5054579;28;20024;-79
2022/12/14 10:45:52;;;;;;;;;;;;;;;;;;5035836;28;20458;-79
2022/12/14 10:48:18;;;;;;;;;;;;;;;;;;5034763;28;19928;-78
2022/12/14 10:50:44;;;;;;;;;;;;;;;;;;5040343;28;20386;-79
2022/12/14 10:53:10;;;;;;;;;;;;;;;;;;5036150;28;19925;-79
2022/12/14 10:55:36;;;;;;;;;;;;;;;;;;5031256;28;19932;-78
2022/12/14 10:58:02;;;;;;;;;;;;;;;;;;5032402;28;19929;-78
2022/12/14 11:00:28;;;;;;;;;;;;;;;;;;5025755;28;19936;-78
2022/12/14 11:02:53;;;;;;;;;;;;;;;;;;5027136;28;19976;-79
2022/12/14 11:05:19;;;;;;;;;;;;;;;;;;5031922;28;19929;-78
2022/12/14 11:07:48;;;;;;;;;;;;;;;;;;5033349;28;19925;-78
2022/12/14 11:10:14;;;;;;;;;;;;;;;;;;5033197;28;19976;-78
2022/12/14 11:12:40;;;;;;;;;;;;;;;;;;5017667;28;20279;-78
2022/12/14 11:15:06;;;;;;;;;;;;;;;;;;5028943;28;19936;-79
2022/12/14 11:17:32;;;;;;;;;;;;;;;;;;5032368;28;19925;-78
2022/12/14 11:19:58;;;;;;;;;;;;;;;;;;5032985;28;19925;-79
2022/12/14 11:22:24;;;;;;;;;;;;;;;;;;5037478;28;19925;-78
2022/12/14 11:24:50;;;;;;;;;;;;;;;;;;5034672;28;19937;-78
2022/12/14 11:27:16;;;;;;;;;;;;;;;;;;5029956;28;20563;-77
2022/12/14 11:29:42;;;;;;;;;;;;;;;;;;5033339;28;20013;-77
2022/12/14 11:32:08;;;;;;;;;;;;;;;;;;5033353;28;20370;-78
2022/12/14 11:34:36;;;;;;;;;;;;;;;;;;5034728;28;19972;-77
2022/12/14 11:37:02;;;;;;;;;;;;;;;;;;5033159;28;19991;-78
2022/12/14 11:39:28;;;;;;;;;;;;;;;;;;5031252;28;19925;-77
2022/12/14 11:41:54;;;;;;;;;;;;;;;;;;5031751;28;19932;-77
2022/12/14 11:44:21;;;;;;;;;;;;;;;;;;5037229;28;20409;-79
2022/12/14 11:46:47;;;;;;;;;;;;;;;;;;5035905;28;19932;-78
2022/12/14 11:49:13;;;;;;;;;;;;;;;;;;5036341;28;19932;-79
2022/12/14 11:51:39;;;;;;;;;;;;;;;;;;5036154;28;19929;-79
2022/12/14 11:54:05;;;;;;;;;;;;;;;;;;5037530;28;19926;-79
2022/12/14 11:56:31;;;;;;;;;;;;;;;;;;5038203;28;19924;-79
2022/12/14 11:58:57;;;;;;;;;;;;;;;;;;5036931;28;19925;-79
2022/12/14 12:01:23;;;;;;;;;;;;;;;;;;5038485;28;20314;-77
2022/12/14 12:03:49;;;;;;;;;;;;;;;;;;5040868;28;19925;-79
2022/12/14 12:06:15;;;;;;;;;;;;;;;;;;5040325;28;19931;-78
2022/12/14 12:08:41;;;;;;;;;;;;;;;;;;5045506;28;19968;-78
2022/12/14 12:11:07;;;;;;;;;;;;;;;;;;5042104;28;19929;-78
2022/12/14 12:13:33;;;;;;;;;;;;;;;;;;5044362;28;19933;-80
2022/12/14 12:15:59;;;;;;;;;;;;;;;;;;5046270;28;19965;-79
2022/12/14 12:18:25;;;;;;;;;;;;;;;;;;5041091;28;19925;-78
2022/12/14 12:20:51;;;;;;;;;;;;;;;;;;5041272;28;19980;-79
2022/12/14 12:23:17;;;;;;;;;;;;;;;;;;5043677;28;19932;-79
2022/12/14 12:25:43;;;;;;;;;;;;;;;;;;5040812;28;19925;-78
2022/12/14 12:28:09;;;;;;;;;;;;;;;;;;5021568;28;19925;-79
2022/12/14 12:30:35;;;;;;;;;;;;;;;;;;5042216;28;19925;-79
2022/12/14 12:33:00;;;;;;;;;;;;;;;;;;5039334;28;20283;-79
2022/12/14 12:35:26;;;;;;;;;;;;;;;;;;5055536;28;19925;-81
2022/12/14 12:37:52;;;;;;;;;;;;;;;;;;5049797;28;19943;-80
2022/12/14 12:40:18;;;;;;;;;;;;;;;;;;5055537;28;20306;-80
2022/12/14 12:42:44;;;;;;;;;;;;;;;;;;5049407;28;19960;-79
2022/12/14 12:45:10;;;;;;;;;;;;;;;;;;5052478;28;19932;-80
2022/12/14 12:47:36;;;;;;;;;;;;;;;;;;5046446;28;19932;-79
2022/12/14 12:50:02;;;;;;;;;;;;;;;;;;5043147;28;19936;-78
2022/12/14 12:52:28;;;;;;;;;;;;;;;;;;5051077;28;19925;-78
2022/12/14 12:54:54;;;;;;;;;;;;;;;;;;5045073;28;19925;-79
2022/12/14 12:57:20;;;;;;;;;;;;;;;;;;5044288;28;19932;-79
2022/12/14 12:59:46;;;;;;;;;;;;;;;;;;5047589;28;19932;-79
2022/12/14 13:02:12;;;;;;;;;;;;;;;;;;5052768;28;19931;-79
2022/12/14 13:04:37;;;;;;;;;;;;;;;;;;5051387;28;19925;-79
2022/12/14 13:07:03;;;;;;;;;;;;;;;;;;5053755;28;19925;-79
2022/12/14 13:09:29;;;;;;;;;;;;;;;;;;5053791;28;19925;-79
2022/12/14 13:11:55;;;;;;;;;;;;;;;;;;5049537;28;19925;-79
2022/12/14 13:14:21;;;;;;;;;;;;;;;;;;5046215;28;19956;-79
2022/12/14 13:16:47;;;;;;;;;;;;;;;;;;5048223;28;19996;-79
2022/12/14 13:19:13;;;;;;;;;;;;;;;;;;5052284;28;19933;-78
2022/12/14 13:21:39;;;;;;;;;;;;;;;;;;5054845;28;19924;-79
2022/12/14 13:24:05;;;;;;;;;;;;;;;;;;5054197;28;19925;-80
2022/12/14 13:26:31;;;;;;;;;;;;;;;;;;5050875;28;20003;-79
2022/12/14 13:28:57;;;;;;;;;;;;;;;;;;5069792;28;19932;-79
2022/12/14 13:31:23;;;;;;;;;;;;;;;;;;5050153;28;19947;-80
2022/12/14 13:33:49;;;;;;;;;;;;;;;;;;5049698;28;19925;-79
2022/12/14 13:36:15;;;;;;;;;;;;;;;;;;5052408;28;19925;-79
2022/12/14 13:38:41;;;;;;;;;;;;;;;;;;5048288;28;19909;-80
2022/12/14 13:41:07;;;;;;;;;;;;;;;;;;5044116;28;20342;-78
2022/12/14 13:43:33;;;;;;;;;;;;;;;;;;5048776;28;19925;-81
2022/12/14 13:45:59;;;;;;;;;;;;;;;;;;5038786;28;19925;-79
2022/12/14 13:48:25;;;;;;;;;;;;;;;;;;5037047;28;19926;-79
2022/12/14 13:50:51;;;;;;;;;;;;;;;;;;5033380;28;19926;-80
2022/12/14 13:53:17;;;;;;;;;;;;;;;;;;5031162;28;19925;-79
2022/12/14 13:55:43;;;;;;;;;;;;;;;;;;5049317;28;19925;-80
2022/12/14 13:58:09;;;;;;;;;;;;;;;;;;5022685;28;19960;-81
2022/12/14 14:00:35;;;;;;;;;;;;;;;;;;5047294;28;20035;-80
2022/12/14 14:03:01;;;;;;;;;;;;;;;;;;5052007;28;19925;-80
2022/12/14 14:05:27;;;;;;;;;;;;;;;;;;5054811;28;19925;-79
2022/12/14 14:07:53;;;;;;;;;;;;;;;;;;5053220;28;19925;-82
2022/12/14 14:10:19;;;;;;;;;;;;;;;;;;5055659;28;19949;-79
2022/12/14 14:12:45;;;;;;;;;;;;;;;;;;5055210;28;19932;-79
2022/12/14 14:15:11;;;;;;;;;;;;;;;;;;5055107;28;19925;-79
2022/12/14 14:17:37;;;;;;;;;;;;;;;;;;5056614;28;19913;-80
2022/12/14 14:20:03;;;;;;;;;;;;;;;;;;5056538;28;19929;-80
2022/12/14 14:22:29;;;;;;;;;;;;;;;;;;5054837;28;19935;-79
2022/12/14 14:24:55;;;;;;;;;;;;;;;;;;5053510;28;19948;-79
2022/12/14 14:27:22;;;;;;;;;;;;;;;;;;5053664;28;20065;-79
2022/12/14 14:29:48;;;;;;;;;;;;;;;;;;5030528;28;19926;-80
2022/12/14 14:32:14;;;;;;;;;;;;;;;;;;5030258;28;19968;-79
2022/12/14 14:34:40;;;;;;;;;;;;;;;;;;5045091;28;19925;-81
2022/12/14 14:37:06;;;;;;;;;;;;;;;;;;5049035;28;19925;-80
2022/12/14 14:39:32;;;;;;;;;;;;;;;;;;5051303;28;19991;-79
2022/12/14 14:41:58;;;;;;;;;;;;;;;;;;5055560;28;19959;-79
2022/12/14 14:44:24;;;;;;;;;;;;;;;;;;5046611;28;19933;-81
2022/12/14 14:46:50;;;;;;;;;;;;;;;;;;5043506;28;19925;-80
2022/12/14 14:49:16;;;;;;;;;;;;;;;;;;5049799;28;19979;-81
2022/12/14 14:51:42;;;;;;;;;;;;;;;;;;5048862;28;19929;-79
2022/12/14 14:54:08;;;;;;;;;;;;;;;;;;5049564;28;19936;-79
2022/12/14 14:56:34;;;;;;;;;;;;;;;;;;5048151;28;19925;-80
2022/12/14 14:59:00;;;;;;;;;;;;;;;;;;5047408;28;19921;-81
2022/12/14 15:01:26;;;;;;;;;;;;;;;;;;5050835;28;20016;-81
2022/12/14 15:03:52;;;;;;;;;;;;;;;;;;5052045;28;19929;-80
2022/12/14 15:06:18;;;;;;;;;;;;;;;;;;5055657;28;19925;-79
2022/12/14 15:08:43;;;;;;;;;;;;;;;;;;5052806;28;19925;-80
2022/12/14 15:11:09;;;;;;;;;;;;;;;;;;5051562;28;19925;-80
2022/12/14 15:13:35;;;;;;;;;;;;;;;;;;5053306;28;19928;-80
2022/12/14 15:16:01;;;;;;;;;;;;;;;;;;5057446;28;19929;-79
2022/12/14 15:18:29;;;;;;;;;;;;;;;;;;5055782;28;19952;-80
2022/12/14 15:20:55;;;;;;;;;;;;;;;;;;5049607;28;19925;-80
2022/12/14 15:23:20;;;;;;;;;;;;;;;;;;5046778;28;19925;-80
2022/12/14 15:25:46;;;;;;;;;;;;;;;;;;5049155;28;19925;-80
2022/12/14 15:28:12;;;;;;;;;;;;;;;;;;5047764;28;19940;-79
2022/12/14 15:30:38;;;;;;;;;;;;;;;;;;5041926;28;19975;-79
2022/12/14 15:33:04;;;;;;;;;;;;;;;;;;5030769;28;19933;-81
2022/12/14 15:35:30;;;;;;;;;;;;;;;;;;5051922;28;19957;-81
2022/12/14 15:37:56;;;;;;;;;;;;;;;;;;5053960;28;19991;-81
2022/12/14 15:40:22;;;;;;;;;;;;;;;;;;5051381;28;19933;-82
2022/12/14 15:42:48;;;;;;;;;;;;;;;;;;5047558;28;19923;-80
2022/12/14 15:45:14;;;;;;;;;;;;;;;;;;5051390;28;19940;-79
2022/12/14 15:47:40;;;;;;;;;;;;;;;;;;5051968;28;20020;-80
2022/12/14 15:50:06;;;;;;;;;;;;;;;;;;5052640;28;19925;-81
2022/12/14 15:52:32;;;;;;;;;;;;;;;;;;5062186;28;19929;-80
2022/12/14 15:54:58;;;;;;;;;;;;;;;;;;5042985;28;19936;-81
2022/12/14 15:57:24;;;;;;;;;;;;;;;;;;5048937;28;19951;-81
2022/12/14 15:59:50;;;;;;;;;;;;;;;;;;5043679;28;19989;-80
2022/12/14 16:02:16;;;;;;;;;;;;;;;;;;5050670;28;19925;-81
2022/12/14 16:04:41;;;;;;;;;;;;;;;;;;5047599;28;19929;-80
2022/12/14 16:07:07;;;;;;;;;;;;;;;;;;5052060;28;20345;-80
2022/12/14 16:09:33;;;;;;;;;;;;;;;;;;5056109;28;19925;-81
2022/12/14 16:11:59;;;;;;;;;;;;;;;;;;5042713;28;19932;-80
2022/12/14 16:14:25;;;;;;;;;;;;;;;;;;5050794;28;19925;-81
2022/12/14 16:16:51;;;;;;;;;;;;;;;;;;5051867;28;19917;-81
2022/12/14 16:19:17;;;;;;;;;;;;;;;;;;5052336;28;19909;-80
2022/12/14 16:21:43;;;;;;;;;;;;;;;;;;5048992;28;19957;-80
2022/12/14 16:24:20;;;;;;;;;;;;;;;;;;5043546;28;19926;-80
2022/12/14 16:26:49;;;;;;;;;;;;;;;;;;5050016;28;20076;-80
2022/12/14 16:29:15;;;;;;;;;;;;;;;;;;5046917;28;19951;-81
2022/12/14 16:31:44;;;;;;;;;;;;;;;;;;5053681;28;19947;-81
2022/12/14 16:34:10;;;;;;;;;;;;;;;;;;5052227;28;19956;-81
2022/12/14 16:36:36;;;;;;;;;;;;;;;;;;5051656;28;19925;-81
2022/12/14 16:39:02;;;;;;;;;;;;;;;;;;5054046;28;19929;-83
2022/12/14 16:41:28;;;;;;;;;;;;;;;;;;5051889;28;20698;-80
2022/12/14 16:43:54;;;;;;;;;;;;;;;;;;5051409;28;19993;-81
2022/12/14 16:46:20;;;;;;;;;;;;;;;;;;5050720;28;19988;-80
2022/12/14 16:48:46;;;;;;;;;;;;;;;;;;5046086;28;19985;-81